sensor_id;sensor_type;location;lat;lon;timestamp;P1;durP1;ratioP1;P2;durP2;ratioP2
67997;SDS011;54773;53.388;-1.504;2022-12-18T00:01:50;13.27;;;6.00;;
67997;SDS011;54773;53.388;-1.504;2022-12-18T00:04:20;11.02;;;6.28;;
67997;SDS011;54773;53.388;-1.504;2022-12-18T00:06:47;11.35;;;6.63;;
67997;SDS011;54773;53.388;-1.504;2022-12-18T00:09:12;10.10;;;5.72;;
67997;SDS011;54773;53.388;-1.504;2022-12-18T00:11:38;16.15;;;5.82;;
67997;SDS011;54773;53.388;-1.504;2022-12-18T00:14:06;10.50;;;6.00;;
67997;SDS011;54773;53.388;-1.504;2022-12-18T00:16:32;10.18;;;5.90;;
67997;SDS011;54773;53.388;-1.504;2022-12-18T00:19:03;10.45;;;6.00;;
67997;SDS011;54773;53.388;-1.504;2022-12-18T00:21:31;11.00;;;6.07;;
67997;SDS011;54773;53.388;-1.504;2022-12-18T00:23:57;10.00;;;5.68;;
67997;SDS011;54773;53.388;-1.504;2022-12-18T00:26:28;12.52;;;7.05;;
67997;SDS011;54773;53.388;-1.504;2022-12-18T00:28:58;11.82;;;6.68;;
67997;SDS011;54773;53.388;-1.504;2022-12-18T00:31:34;12.10;;;6.43;;
67997;SDS011;54773;53.388;-1.504;2022-12-18T00:34:00;12.77;;;6.30;;
67997;SDS011;54773;53.388;-1.504;2022-12-18T00:36:27;12.95;;;6.85;;
67997;SDS011;54773;53.388;-1.504;2022-12-18T00:38:57;10.60;;;6.07;;
67997;SDS011;54773;53.388;-1.504;2022-12-18T00:41:24;11.75;;;6.85;;
67997;SDS011;54773;53.388;-1.504;2022-12-18T00:46:35;12.82;;;8.13;;
67997;SDS011;54773;53.388;-1.504;2022-12-18T00:49:00;13.77;;;8.40;;
67997;SDS011;54773;53.388;-1.504;2022-12-18T00:51:27;17.15;;;9.18;;
67997;SDS011;54773;53.388;-1.504;2022-12-18T00:53:54;14.15;;;9.38;;
67997;SDS011;54773;53.388;-1.504;2022-12-18T00:56:22;12.80;;;8.43;;
67997;SDS011;54773;53.388;-1.504;2022-12-18T00:58:48;13.68;;;9.65;;
67997;SDS011;54773;53.388;-1.504;2022-12-18T01:01:14;15.25;;;8.77;;
67997;SDS011;54773;53.388;-1.504;2022-12-18T01:03:43;13.65;;;7.22;;
67997;SDS011;54773;53.388;-1.504;2022-12-18T01:06:10;14.55;;;7.10;;
67997;SDS011;54773;53.388;-1.504;2022-12-18T01:08:37;14.88;;;7.18;;
67997;SDS011;54773;53.388;-1.504;2022-12-18T01:11:07;10.88;;;6.45;;
67997;SDS011;54773;53.388;-1.504;2022-12-18T01:13:34;11.40;;;7.20;;
67997;SDS011;54773;53.388;-1.504;2022-12-18T01:16:00;11.48;;;6.45;;
67997;SDS011;54773;53.388;-1.504;2022-12-18T01:18:25;12.57;;;6.65;;
67997;SDS011;54773;53.388;-1.504;2022-12-18T01:20:51;10.48;;;5.82;;
67997;SDS011;54773;53.388;-1.504;2022-12-18T01:23:20;14.90;;;6.00;;
67997;SDS011;54773;53.388;-1.504;2022-12-18T01:25:45;12.60;;;6.03;;
67997;SDS011;54773;53.388;-1.504;2022-12-18T01:28:11;12.35;;;6.22;;
67997;SDS011;54773;53.388;-1.504;2022-12-18T01:30:37;8.65;;;5.80;;
67997;SDS011;54773;53.388;-1.504;2022-12-18T01:33:04;10.52;;;6.30;;
67997;SDS011;54773;53.388;-1.504;2022-12-18T01:35:30;11.80;;;6.80;;
67997;SDS011;54773;53.388;-1.504;2022-12-18T01:37:56;11.77;;;5.75;;
67997;SDS011;54773;53.388;-1.504;2022-12-18T01:40:21;11.15;;;6.03;;
67997;SDS011;54773;53.388;-1.504;2022-12-18T01:42:54;14.60;;;6.72;;
67997;SDS011;54773;53.388;-1.504;2022-12-18T01:45:24;9.65;;;6.05;;
67997;SDS011;54773;53.388;-1.504;2022-12-18T01:47:53;12.50;;;6.05;;
67997;SDS011;54773;53.388;-1.504;2022-12-18T01:50:33;13.35;;;6.40;;
67997;SDS011;54773;53.388;-1.504;2022-12-18T01:53:19;11.13;;;6.65;;
67997;SDS011;54773;53.388;-1.504;2022-12-18T01:55:48;9.38;;;5.90;;
67997;SDS011;54773;53.388;-1.504;2022-12-18T01:58:20;13.52;;;6.30;;
67997;SDS011;54773;53.388;-1.504;2022-12-18T02:00:49;10.90;;;6.53;;
67997;SDS011;54773;53.388;-1.504;2022-12-18T02:03:19;14.68;;;6.72;;
67997;SDS011;54773;53.388;-1.504;2022-12-18T02:08:36;11.57;;;6.60;;
67997;SDS011;54773;53.388;-1.504;2022-12-18T02:17:05;13.48;;;7.30;;
67997;SDS011;54773;53.388;-1.504;2022-12-18T02:28:06;10.60;;;6.80;;
67997;SDS011;54773;53.388;-1.504;2022-12-18T02:30:37;12.82;;;7.28;;
67997;SDS011;54773;53.388;-1.504;2022-12-18T02:33:05;12.65;;;7.05;;
67997;SDS011;54773;53.388;-1.504;2022-12-18T02:35:35;13.10;;;7.13;;
67997;SDS011;54773;53.388;-1.504;2022-12-18T02:38:01;11.70;;;7.10;;
67997;SDS011;54773;53.388;-1.504;2022-12-18T02:40:28;12.68;;;7.45;;
67997;SDS011;54773;53.388;-1.504;2022-12-18T02:42:55;13.10;;;6.63;;
67997;SDS011;54773;53.388;-1.504;2022-12-18T02:45:24;12.25;;;7.45;;
67997;SDS011;54773;53.388;-1.504;2022-12-18T02:47:52;17.13;;;7.88;;
67997;SDS011;54773;53.388;-1.504;2022-12-18T03:06:10;15.75;;;8.43;;
67997;SDS011;54773;53.388;-1.504;2022-12-18T03:08:42;14.40;;;8.52;;
67997;SDS011;54773;53.388;-1.504;2022-12-18T03:11:12;14.43;;;8.73;;
67997;SDS011;54773;53.388;-1.504;2022-12-18T03:13:46;17.52;;;8.88;;
67997;SDS011;54773;53.388;-1.504;2022-12-18T03:16:18;15.57;;;8.55;;
67997;SDS011;54773;53.388;-1.504;2022-12-18T03:21:16;15.57;;;9.40;;
67997;SDS011;54773;53.388;-1.504;2022-12-18T03:23:47;17.05;;;8.35;;
67997;SDS011;54773;53.388;-1.504;2022-12-18T03:26:15;15.75;;;8.77;;
67997;SDS011;54773;53.388;-1.504;2022-12-18T03:28:51;13.63;;;8.98;;
67997;SDS011;54773;53.388;-1.504;2022-12-18T03:31:19;14.27;;;8.57;;
67997;SDS011;54773;53.388;-1.504;2022-12-18T03:33:50;16.75;;;8.43;;
67997;SDS011;54773;53.388;-1.504;2022-12-18T03:36:20;19.15;;;10.13;;
67997;SDS011;54773;53.388;-1.504;2022-12-18T03:38:45;16.85;;;9.43;;
67997;SDS011;54773;53.388;-1.504;2022-12-18T03:46:59;15.00;;;8.65;;
67997;SDS011;54773;53.388;-1.504;2022-12-18T03:55:16;20.05;;;9.80;;
67997;SDS011;54773;53.388;-1.504;2022-12-18T03:57:45;18.23;;;9.50;;
67997;SDS011;54773;53.388;-1.504;2022-12-18T04:00:13;16.60;;;9.70;;
67997;SDS011;54773;53.388;-1.504;2022-12-18T04:02:44;19.55;;;10.77;;
67997;SDS011;54773;53.388;-1.504;2022-12-18T04:05:12;18.55;;;9.88;;
67997;SDS011;54773;53.388;-1.504;2022-12-18T04:07:38;23.50;;;10.63;;
67997;SDS011;54773;53.388;-1.504;2022-12-18T04:10:05;23.77;;;11.43;;
67997;SDS011;54773;53.388;-1.504;2022-12-18T04:12:32;19.15;;;10.82;;
67997;SDS011;54773;53.388;-1.504;2022-12-18T04:15:02;18.05;;;11.05;;
67997;SDS011;54773;53.388;-1.504;2022-12-18T04:17:27;22.63;;;11.90;;
67997;SDS011;54773;53.388;-1.504;2022-12-18T04:19:54;21.58;;;11.65;;
67997;SDS011;54773;53.388;-1.504;2022-12-18T04:22:19;20.35;;;11.50;;
67997;SDS011;54773;53.388;-1.504;2022-12-18T04:24:45;23.58;;;12.13;;
67997;SDS011;54773;53.388;-1.504;2022-12-18T04:27:13;22.77;;;11.35;;
67997;SDS011;54773;53.388;-1.504;2022-12-18T04:29:40;21.70;;;12.13;;
67997;SDS011;54773;53.388;-1.504;2022-12-18T04:32:06;25.33;;;12.35;;
67997;SDS011;54773;53.388;-1.504;2022-12-18T04:34:32;20.65;;;12.43;;
67997;SDS011;54773;53.388;-1.504;2022-12-18T04:36:58;21.52;;;11.73;;
67997;SDS011;54773;53.388;-1.504;2022-12-18T04:39:24;19.90;;;12.20;;
67997;SDS011;54773;53.388;-1.504;2022-12-18T04:41:49;23.80;;;12.77;;
67997;SDS011;54773;53.388;-1.504;2022-12-18T04:44:16;20.60;;;12.13;;
67997;SDS011;54773;53.388;-1.504;2022-12-18T04:46:41;25.05;;;13.48;;
67997;SDS011;54773;53.388;-1.504;2022-12-18T04:49:07;20.70;;;12.43;;
67997;SDS011;54773;53.388;-1.504;2022-12-18T04:51:34;25.83;;;12.80;;
67997;SDS011;54773;53.388;-1.504;2022-12-18T04:53:59;23.08;;;11.95;;
67997;SDS011;54773;53.388;-1.504;2022-12-18T04:56:28;22.73;;;11.95;;
67997;SDS011;54773;53.388;-1.504;2022-12-18T04:58:55;21.25;;;11.90;;
67997;SDS011;54773;53.388;-1.504;2022-12-18T05:01:20;24.95;;;12.05;;
67997;SDS011;54773;53.388;-1.504;2022-12-18T05:03:46;25.80;;;12.07;;
67997;SDS011;54773;53.388;-1.504;2022-12-18T05:06:12;26.23;;;12.80;;
67997;SDS011;54773;53.388;-1.504;2022-12-18T05:08:37;26.80;;;13.32;;
67997;SDS011;54773;53.388;-1.504;2022-12-18T05:11:04;27.25;;;13.18;;
67997;SDS011;54773;53.388;-1.504;2022-12-18T05:13:32;35.20;;;14.80;;
67997;SDS011;54773;53.388;-1.504;2022-12-18T05:15:57;31.30;;;14.27;;
67997;SDS011;54773;53.388;-1.504;2022-12-18T05:18:23;33.88;;;15.23;;
67997;SDS011;54773;53.388;-1.504;2022-12-18T05:20:50;30.10;;;16.45;;
67997;SDS011;54773;53.388;-1.504;2022-12-18T05:23:16;32.72;;;14.95;;
67997;SDS011;54773;53.388;-1.504;2022-12-18T05:26:02;36.33;;;16.15;;
67997;SDS011;54773;53.388;-1.504;2022-12-18T05:28:29;31.27;;;15.23;;
67997;SDS011;54773;53.388;-1.504;2022-12-18T05:30:57;38.20;;;16.40;;
67997;SDS011;54773;53.388;-1.504;2022-12-18T05:33:25;37.83;;;16.83;;
67997;SDS011;54773;53.388;-1.504;2022-12-18T05:35:55;28.75;;;15.48;;
67997;SDS011;54773;53.388;-1.504;2022-12-18T05:38:23;34.05;;;16.15;;
67997;SDS011;54773;53.388;-1.504;2022-12-18T05:40:50;34.55;;;16.25;;
67997;SDS011;54773;53.388;-1.504;2022-12-18T05:43:16;37.40;;;16.98;;
67997;SDS011;54773;53.388;-1.504;2022-12-18T05:45:43;41.53;;;18.08;;
67997;SDS011;54773;53.388;-1.504;2022-12-18T05:48:12;44.40;;;17.83;;
67997;SDS011;54773;53.388;-1.504;2022-12-18T05:50:38;43.42;;;17.33;;
67997;SDS011;54773;53.388;-1.504;2022-12-18T05:53:05;42.55;;;18.48;;
67997;SDS011;54773;53.388;-1.504;2022-12-18T05:55:38;46.10;;;19.13;;
67997;SDS011;54773;53.388;-1.504;2022-12-18T05:58:05;46.63;;;19.13;;
67997;SDS011;54773;53.388;-1.504;2022-12-18T06:00:32;49.97;;;20.80;;
67997;SDS011;54773;53.388;-1.504;2022-12-18T06:03:00;47.40;;;19.70;;
67997;SDS011;54773;53.388;-1.504;2022-12-18T06:05:28;45.10;;;19.70;;
67997;SDS011;54773;53.388;-1.504;2022-12-18T06:07:54;54.17;;;21.85;;
67997;SDS011;54773;53.388;-1.504;2022-12-18T06:10:20;50.95;;;20.95;;
67997;SDS011;54773;53.388;-1.504;2022-12-18T06:12:49;51.50;;;20.83;;
67997;SDS011;54773;53.388;-1.504;2022-12-18T06:15:14;48.05;;;19.83;;
67997;SDS011;54773;53.388;-1.504;2022-12-18T06:17:40;54.00;;;21.00;;
67997;SDS011;54773;53.388;-1.504;2022-12-18T06:20:05;47.85;;;21.67;;
67997;SDS011;54773;53.388;-1.504;2022-12-18T06:22:32;66.18;;;24.08;;
67997;SDS011;54773;53.388;-1.504;2022-12-18T06:24:58;57.25;;;23.50;;
67997;SDS011;54773;53.388;-1.504;2022-12-18T06:27:26;59.03;;;21.13;;
67997;SDS011;54773;53.388;-1.504;2022-12-18T06:29:51;61.80;;;23.65;;
67997;SDS011;54773;53.388;-1.504;2022-12-18T06:32:20;64.85;;;24.75;;
67997;SDS011;54773;53.388;-1.504;2022-12-18T06:34:49;59.85;;;24.73;;
67997;SDS011;54773;53.388;-1.504;2022-12-18T06:37:15;62.58;;;23.25;;
67997;SDS011;54773;53.388;-1.504;2022-12-18T06:39:49;71.38;;;26.83;;
67997;SDS011;54773;53.388;-1.504;2022-12-18T06:42:32;63.63;;;26.13;;
67997;SDS011;54773;53.388;-1.504;2022-12-18T06:44:58;66.15;;;25.55;;
67997;SDS011;54773;53.388;-1.504;2022-12-18T06:47:23;67.22;;;24.50;;
67997;SDS011;54773;53.388;-1.504;2022-12-18T06:49:54;69.97;;;26.88;;
67997;SDS011;54773;53.388;-1.504;2022-12-18T06:52:20;65.88;;;25.50;;
67997;SDS011;54773;53.388;-1.504;2022-12-18T06:54:46;64.38;;;27.08;;
67997;SDS011;54773;53.388;-1.504;2022-12-18T06:57:11;62.03;;;24.27;;
67997;SDS011;54773;53.388;-1.504;2022-12-18T06:59:37;65.97;;;26.15;;
67997;SDS011;54773;53.388;-1.504;2022-12-18T07:02:03;68.57;;;26.50;;
67997;SDS011;54773;53.388;-1.504;2022-12-18T07:04:30;58.28;;;24.98;;
67997;SDS011;54773;53.388;-1.504;2022-12-18T07:06:56;60.70;;;25.80;;
67997;SDS011;54773;53.388;-1.504;2022-12-18T07:09:25;74.90;;;27.42;;
67997;SDS011;54773;53.388;-1.504;2022-12-18T07:11:51;65.32;;;25.17;;
67997;SDS011;54773;53.388;-1.504;2022-12-18T07:14:17;67.07;;;26.23;;
67997;SDS011;54773;53.388;-1.504;2022-12-18T07:16:42;65.32;;;25.50;;
67997;SDS011;54773;53.388;-1.504;2022-12-18T07:19:08;64.82;;;27.15;;
67997;SDS011;54773;53.388;-1.504;2022-12-18T07:21:33;69.70;;;26.33;;
67997;SDS011;54773;53.388;-1.504;2022-12-18T07:23:59;75.18;;;28.83;;
67997;SDS011;54773;53.388;-1.504;2022-12-18T07:26:25;116.35;;;30.77;;
67997;SDS011;54773;53.388;-1.504;2022-12-18T07:28:54;71.63;;;28.83;;
67997;SDS011;54773;53.388;-1.504;2022-12-18T07:31:20;76.78;;;27.52;;
67997;SDS011;54773;53.388;-1.504;2022-12-18T07:33:46;95.57;;;29.27;;
67997;SDS011;54773;53.388;-1.504;2022-12-18T07:36:12;105.55;;;29.88;;
67997;SDS011;54773;53.388;-1.504;2022-12-18T07:38:38;89.78;;;29.73;;
67997;SDS011;54773;53.388;-1.504;2022-12-18T07:41:05;82.47;;;29.33;;
67997;SDS011;54773;53.388;-1.504;2022-12-18T07:43:32;118.43;;;31.73;;
67997;SDS011;54773;53.388;-1.504;2022-12-18T07:45:58;91.90;;;30.63;;
67997;SDS011;54773;53.388;-1.504;2022-12-18T07:48:33;77.40;;;28.35;;
67997;SDS011;54773;53.388;-1.504;2022-12-18T07:50:59;67.32;;;27.45;;
67997;SDS011;54773;53.388;-1.504;2022-12-18T07:53:25;78.20;;;28.67;;
67997;SDS011;54773;53.388;-1.504;2022-12-18T07:55:58;77.13;;;25.88;;
67997;SDS011;54773;53.388;-1.504;2022-12-18T07:58:27;84.97;;;28.90;;
67997;SDS011;54773;53.388;-1.504;2022-12-18T08:00:53;75.20;;;26.60;;
67997;SDS011;54773;53.388;-1.504;2022-12-18T08:03:20;74.53;;;26.90;;
67997;SDS011;54773;53.388;-1.504;2022-12-18T08:05:49;69.82;;;27.13;;
67997;SDS011;54773;53.388;-1.504;2022-12-18T08:08:15;77.05;;;27.13;;
67997;SDS011;54773;53.388;-1.504;2022-12-18T08:10:41;72.85;;;27.13;;
67997;SDS011;54773;53.388;-1.504;2022-12-18T08:13:10;89.47;;;28.83;;
67997;SDS011;54773;53.388;-1.504;2022-12-18T08:15:35;78.50;;;28.00;;
67997;SDS011;54773;53.388;-1.504;2022-12-18T08:18:01;90.85;;;28.30;;
67997;SDS011;54773;53.388;-1.504;2022-12-18T08:20:26;71.95;;;23.77;;
67997;SDS011;54773;53.388;-1.504;2022-12-18T08:22:52;77.65;;;27.30;;
67997;SDS011;54773;53.388;-1.504;2022-12-18T08:25:18;59.00;;;23.92;;
67997;SDS011;54773;53.388;-1.504;2022-12-18T08:27:44;70.03;;;24.77;;
67997;SDS011;54773;53.388;-1.504;2022-12-18T08:30:09;72.45;;;26.55;;
67997;SDS011;54773;53.388;-1.504;2022-12-18T08:32:35;72.78;;;25.30;;
67997;SDS011;54773;53.388;-1.504;2022-12-18T08:35:01;66.68;;;26.10;;
67997;SDS011;54773;53.388;-1.504;2022-12-18T08:37:27;69.35;;;23.52;;
67997;SDS011;54773;53.388;-1.504;2022-12-18T08:39:52;64.10;;;22.48;;
67997;SDS011;54773;53.388;-1.504;2022-12-18T08:42:18;57.60;;;22.08;;
67997;SDS011;54773;53.388;-1.504;2022-12-18T08:45:02;80.78;;;29.23;;
67997;SDS011;54773;53.388;-1.504;2022-12-18T08:47:29;64.10;;;26.13;;
67997;SDS011;54773;53.388;-1.504;2022-12-18T08:49:55;75.70;;;29.00;;
67997;SDS011;54773;53.388;-1.504;2022-12-18T08:52:21;67.28;;;24.48;;
67997;SDS011;54773;53.388;-1.504;2022-12-18T08:54:47;72.88;;;28.48;;
67997;SDS011;54773;53.388;-1.504;2022-12-18T08:57:16;70.85;;;27.00;;
67997;SDS011;54773;53.388;-1.504;2022-12-18T08:59:41;80.95;;;27.13;;
67997;SDS011;54773;53.388;-1.504;2022-12-18T09:02:10;74.57;;;26.42;;
67997;SDS011;54773;53.388;-1.504;2022-12-18T09:04:36;68.88;;;24.90;;
67997;SDS011;54773;53.388;-1.504;2022-12-18T09:07:02;61.10;;;22.23;;
67997;SDS011;54773;53.388;-1.504;2022-12-18T09:09:27;60.67;;;23.00;;
67997;SDS011;54773;53.388;-1.504;2022-12-18T09:11:52;58.67;;;22.83;;
67997;SDS011;54773;53.388;-1.504;2022-12-18T09:14:18;60.53;;;21.65;;
67997;SDS011;54773;53.388;-1.504;2022-12-18T09:16:43;55.75;;;21.48;;
67997;SDS011;54773;53.388;-1.504;2022-12-18T09:19:09;53.40;;;21.70;;
67997;SDS011;54773;53.388;-1.504;2022-12-18T09:21:38;57.70;;;22.20;;
67997;SDS011;54773;53.388;-1.504;2022-12-18T09:24:08;73.28;;;23.33;;
67997;SDS011;54773;53.388;-1.504;2022-12-18T09:26:37;65.10;;;23.27;;
67997;SDS011;54773;53.388;-1.504;2022-12-18T09:29:02;65.68;;;22.38;;
67997;SDS011;54773;53.388;-1.504;2022-12-18T09:31:30;68.25;;;23.85;;
67997;SDS011;54773;53.388;-1.504;2022-12-18T09:33:55;58.50;;;20.50;;
67997;SDS011;54773;53.388;-1.504;2022-12-18T09:36:21;61.45;;;20.67;;
67997;SDS011;54773;53.388;-1.504;2022-12-18T09:38:47;55.40;;;20.95;;
67997;SDS011;54773;53.388;-1.504;2022-12-18T09:43:57;57.30;;;21.75;;
67997;SDS011;54773;53.388;-1.504;2022-12-18T09:46:27;52.40;;;20.02;;
67997;SDS011;54773;53.388;-1.504;2022-12-18T09:48:56;60.78;;;21.92;;
67997;SDS011;54773;53.388;-1.504;2022-12-18T09:51:27;53.53;;;20.80;;
67997;SDS011;54773;53.388;-1.504;2022-12-18T09:54:01;53.38;;;20.80;;
67997;SDS011;54773;53.388;-1.504;2022-12-18T09:56:40;53.22;;;21.00;;
67997;SDS011;54773;53.388;-1.504;2022-12-18T09:59:12;58.83;;;23.08;;
67997;SDS011;54773;53.388;-1.504;2022-12-18T10:02:20;58.60;;;19.15;;
67997;SDS011;54773;53.388;-1.504;2022-12-18T10:05:09;62.28;;;22.08;;
67997;SDS011;54773;53.388;-1.504;2022-12-18T10:10:33;51.35;;;21.15;;
67997;SDS011;54773;53.388;-1.504;2022-12-18T10:13:14;58.08;;;21.48;;
67997;SDS011;54773;53.388;-1.504;2022-12-18T10:21:05;51.03;;;19.27;;
67997;SDS011;54773;53.388;-1.504;2022-12-18T10:23:41;51.42;;;18.23;;
67997;SDS011;54773;53.388;-1.504;2022-12-18T10:26:16;47.58;;;19.45;;
67997;SDS011;54773;53.388;-1.504;2022-12-18T10:28:42;48.05;;;19.67;;
67997;SDS011;54773;53.388;-1.504;2022-12-18T10:31:27;48.90;;;19.55;;
67997;SDS011;54773;53.388;-1.504;2022-12-18T10:33:55;49.17;;;20.33;;
67997;SDS011;54773;53.388;-1.504;2022-12-18T10:36:21;51.72;;;20.98;;
67997;SDS011;54773;53.388;-1.504;2022-12-18T10:38:47;43.72;;;19.13;;
67997;SDS011;54773;53.388;-1.504;2022-12-18T10:43:47;50.28;;;18.30;;
67997;SDS011;54773;53.388;-1.504;2022-12-18T10:46:16;44.50;;;17.55;;
67997;SDS011;54773;53.388;-1.504;2022-12-18T10:54:15;46.25;;;19.23;;
67997;SDS011;54773;53.388;-1.504;2022-12-18T10:56:44;43.53;;;19.02;;
67997;SDS011;54773;53.388;-1.504;2022-12-18T10:59:10;45.45;;;17.80;;
67997;SDS011;54773;53.388;-1.504;2022-12-18T11:01:46;44.92;;;18.45;;
67997;SDS011;54773;53.388;-1.504;2022-12-18T11:04:37;40.83;;;17.23;;
67997;SDS011;54773;53.388;-1.504;2022-12-18T11:07:15;40.63;;;17.08;;
67997;SDS011;54773;53.388;-1.504;2022-12-18T11:09:59;45.20;;;17.20;;
67997;SDS011;54773;53.388;-1.504;2022-12-18T11:12:29;43.65;;;18.15;;
67997;SDS011;54773;53.388;-1.504;2022-12-18T11:14:59;39.90;;;17.02;;
67997;SDS011;54773;53.388;-1.504;2022-12-18T11:17:28;47.63;;;18.70;;
67997;SDS011;54773;53.388;-1.504;2022-12-18T11:19:56;49.60;;;18.05;;
67997;SDS011;54773;53.388;-1.504;2022-12-18T11:22:27;39.80;;;16.17;;
67997;SDS011;54773;53.388;-1.504;2022-12-18T11:24:59;38.65;;;16.98;;
67997;SDS011;54773;53.388;-1.504;2022-12-18T11:27:30;43.30;;;18.00;;
67997;SDS011;54773;53.388;-1.504;2022-12-18T11:33:19;37.28;;;18.35;;
67997;SDS011;54773;53.388;-1.504;2022-12-18T11:35:53;40.35;;;18.88;;
67997;SDS011;54773;53.388;-1.504;2022-12-18T11:38:39;41.35;;;18.50;;
67997;SDS011;54773;53.388;-1.504;2022-12-18T11:41:13;40.38;;;18.27;;
67997;SDS011;54773;53.388;-1.504;2022-12-18T11:44:28;38.58;;;17.23;;
67997;SDS011;54773;53.388;-1.504;2022-12-18T11:47:00;41.78;;;16.83;;
67997;SDS011;54773;53.388;-1.504;2022-12-18T11:49:34;38.22;;;17.85;;
67997;SDS011;54773;53.388;-1.504;2022-12-18T11:52:15;55.30;;;21.77;;
67997;SDS011;54773;53.388;-1.504;2022-12-18T11:54:44;42.90;;;17.88;;
67997;SDS011;54773;53.388;-1.504;2022-12-18T12:00:24;46.20;;;18.50;;
67997;SDS011;54773;53.388;-1.504;2022-12-18T12:39:32;35.22;;;17.08;;
67997;SDS011;54773;53.388;-1.504;2022-12-18T12:42:04;36.78;;;18.05;;
67997;SDS011;54773;53.388;-1.504;2022-12-18T12:44:51;46.72;;;19.08;;
67997;SDS011;54773;53.388;-1.504;2022-12-18T12:47:38;44.65;;;19.05;;
67997;SDS011;54773;53.388;-1.504;2022-12-18T12:50:11;46.53;;;19.23;;
67997;SDS011;54773;53.388;-1.504;2022-12-18T12:52:40;50.50;;;19.85;;
67997;SDS011;54773;53.388;-1.504;2022-12-18T12:55:28;42.72;;;17.90;;
67997;SDS011;54773;53.388;-1.504;2022-12-18T13:01:20;46.58;;;19.08;;
67997;SDS011;54773;53.388;-1.504;2022-12-18T13:09:22;44.10;;;16.90;;
67997;SDS011;54773;53.388;-1.504;2022-12-18T13:12:12;42.05;;;19.60;;
67997;SDS011;54773;53.388;-1.504;2022-12-18T13:15:43;46.17;;;19.00;;
67997;SDS011;54773;53.388;-1.504;2022-12-18T13:17:49;49.13;;;20.67;;
67997;SDS011;54773;53.388;-1.504;2022-12-18T13:24:30;44.78;;;19.08;;
67997;SDS011;54773;53.388;-1.504;2022-12-18T13:26:59;43.22;;;20.30;;
67997;SDS011;54773;53.388;-1.504;2022-12-18T13:36:41;47.63;;;19.75;;
67997;SDS011;54773;53.388;-1.504;2022-12-18T13:41:40;44.03;;;19.60;;
67997;SDS011;54773;53.388;-1.504;2022-12-18T13:46:58;49.15;;;21.08;;
67997;SDS011;54773;53.388;-1.504;2022-12-18T13:51:50;49.15;;;20.25;;
67997;SDS011;54773;53.388;-1.504;2022-12-18T13:56:53;47.15;;;20.98;;
67997;SDS011;54773;53.388;-1.504;2022-12-18T14:04:19;47.00;;;20.58;;
67997;SDS011;54773;53.388;-1.504;2022-12-18T14:06:49;56.78;;;22.45;;
67997;SDS011;54773;53.388;-1.504;2022-12-18T14:09:21;52.00;;;21.05;;
67997;SDS011;54773;53.388;-1.504;2022-12-18T14:11:54;51.53;;;22.38;;
67997;SDS011;54773;53.388;-1.504;2022-12-18T14:14:45;55.03;;;22.73;;
67997;SDS011;54773;53.388;-1.504;2022-12-18T14:17:12;65.30;;;23.90;;
67997;SDS011;54773;53.388;-1.504;2022-12-18T14:19:43;58.05;;;24.42;;
67997;SDS011;54773;53.388;-1.504;2022-12-18T14:22:17;70.13;;;25.17;;
67997;SDS011;54773;53.388;-1.504;2022-12-18T14:24:46;63.25;;;24.05;;
67997;SDS011;54773;53.388;-1.504;2022-12-18T14:27:27;57.72;;;21.63;;
67997;SDS011;54773;53.388;-1.504;2022-12-18T14:29:53;56.00;;;23.13;;
67997;SDS011;54773;53.388;-1.504;2022-12-18T14:32:19;55.15;;;21.90;;
67997;SDS011;54773;53.388;-1.504;2022-12-18T14:34:47;57.75;;;21.80;;
67997;SDS011;54773;53.388;-1.504;2022-12-18T14:37:16;52.88;;;21.58;;
67997;SDS011;54773;53.388;-1.504;2022-12-18T14:39:56;52.97;;;21.58;;
67997;SDS011;54773;53.388;-1.504;2022-12-18T14:42:24;54.40;;;22.65;;
67997;SDS011;54773;53.388;-1.504;2022-12-18T14:47:59;53.23;;;22.00;;
67997;SDS011;54773;53.388;-1.504;2022-12-18T14:50:25;51.65;;;20.38;;
67997;SDS011;54773;53.388;-1.504;2022-12-18T14:52:51;49.75;;;23.00;;
67997;SDS011;54773;53.388;-1.504;2022-12-18T14:55:17;50.53;;;22.00;;
67997;SDS011;54773;53.388;-1.504;2022-12-18T14:57:44;51.95;;;22.70;;
67997;SDS011;54773;53.388;-1.504;2022-12-18T15:00:15;65.20;;;24.50;;
67997;SDS011;54773;53.388;-1.504;2022-12-18T15:02:46;67.60;;;24.67;;
67997;SDS011;54773;53.388;-1.504;2022-12-18T15:05:24;93.28;;;27.27;;
67997;SDS011;54773;53.388;-1.504;2022-12-18T15:08:24;68.18;;;26.02;;
67997;SDS011;54773;53.388;-1.504;2022-12-18T15:10:55;55.25;;;22.52;;
67997;SDS011;54773;53.388;-1.504;2022-12-18T15:13:23;51.25;;;23.88;;
67997;SDS011;54773;53.388;-1.504;2022-12-18T15:15:49;66.65;;;25.13;;
67997;SDS011;54773;53.388;-1.504;2022-12-18T15:18:16;62.22;;;24.88;;
67997;SDS011;54773;53.388;-1.504;2022-12-18T15:23:47;70.05;;;25.95;;
67997;SDS011;54773;53.388;-1.504;2022-12-18T15:26:15;62.83;;;24.70;;
67997;SDS011;54773;53.388;-1.504;2022-12-18T15:28:44;77.70;;;24.48;;
67997;SDS011;54773;53.388;-1.504;2022-12-18T15:31:29;99.68;;;28.25;;
67997;SDS011;54773;53.388;-1.504;2022-12-18T15:36:46;72.65;;;26.30;;
67997;SDS011;54773;53.388;-1.504;2022-12-18T15:39:12;141.23;;;27.75;;
67997;SDS011;54773;53.388;-1.504;2022-12-18T15:41:39;64.85;;;23.60;;
67997;SDS011;54773;53.388;-1.504;2022-12-18T15:44:23;63.10;;;26.65;;
67997;SDS011;54773;53.388;-1.504;2022-12-18T15:46:51;126.95;;;30.58;;
67997;SDS011;54773;53.388;-1.504;2022-12-18T15:49:24;99.57;;;28.05;;
67997;SDS011;54773;53.388;-1.504;2022-12-18T15:51:59;136.80;;;30.13;;
67997;SDS011;54773;53.388;-1.504;2022-12-18T15:57:12;88.20;;;26.03;;
67997;SDS011;54773;53.388;-1.504;2022-12-18T15:59:50;128.73;;;29.23;;
67997;SDS011;54773;53.388;-1.504;2022-12-18T16:02:18;62.97;;;24.58;;
67997;SDS011;54773;53.388;-1.504;2022-12-18T16:04:44;55.67;;;23.33;;
67997;SDS011;54773;53.388;-1.504;2022-12-18T16:07:11;116.28;;;26.92;;
67997;SDS011;54773;53.388;-1.504;2022-12-18T16:09:37;113.03;;;28.73;;
67997;SDS011;54773;53.388;-1.504;2022-12-18T16:12:04;107.43;;;27.25;;
67997;SDS011;54773;53.388;-1.504;2022-12-18T16:14:30;90.97;;;26.35;;
67997;SDS011;54773;53.388;-1.504;2022-12-18T16:16:57;53.10;;;22.25;;
67997;SDS011;54773;53.388;-1.504;2022-12-18T16:19:25;54.20;;;24.25;;
67997;SDS011;54773;53.388;-1.504;2022-12-18T16:21:52;56.55;;;23.52;;
67997;SDS011;54773;53.388;-1.504;2022-12-18T16:24:24;46.72;;;21.55;;
67997;SDS011;54773;53.388;-1.504;2022-12-18T16:26:51;61.53;;;24.80;;
67997;SDS011;54773;53.388;-1.504;2022-12-18T16:29:18;48.03;;;22.63;;
67997;SDS011;54773;53.388;-1.504;2022-12-18T16:31:45;52.97;;;23.42;;
67997;SDS011;54773;53.388;-1.504;2022-12-18T16:34:27;43.83;;;20.55;;
67997;SDS011;54773;53.388;-1.504;2022-12-18T16:36:56;53.78;;;21.95;;
67997;SDS011;54773;53.388;-1.504;2022-12-18T16:39:28;64.68;;;21.80;;
67997;SDS011;54773;53.388;-1.504;2022-12-18T16:41:55;79.97;;;24.67;;
67997;SDS011;54773;53.388;-1.504;2022-12-18T16:44:22;152.73;;;29.63;;
67997;SDS011;54773;53.388;-1.504;2022-12-18T16:46:51;126.80;;;28.67;;
67997;SDS011;54773;53.388;-1.504;2022-12-18T16:49:17;86.03;;;26.92;;
67997;SDS011;54773;53.388;-1.504;2022-12-18T16:51:43;61.22;;;25.95;;
67997;SDS011;54773;53.388;-1.504;2022-12-18T16:54:11;95.50;;;27.50;;
67997;SDS011;54773;53.388;-1.504;2022-12-18T16:56:37;113.35;;;29.27;;
67997;SDS011;54773;53.388;-1.504;2022-12-18T16:59:04;118.20;;;30.10;;
67997;SDS011;54773;53.388;-1.504;2022-12-18T17:01:30;81.55;;;29.55;;
67997;SDS011;54773;53.388;-1.504;2022-12-18T17:04:01;115.70;;;32.75;;